Redwood Falls Municipal Airport
KRWF : now visible

Airfield :











YOU CAN JOIN US ON...

 
LOGIN :

Register | Disclaimer

   EN    FR    IT 

 









Legend :    VFR   Marginal VFR   IFR   Intensive IFR   Very Intensive IFR
Visi :
Ceiling :
>= 8 km
>= 3000ft
5 to 8 km
1000 to 3000 ft
1500m to 5 km
500 to 1000 ft
800 to 1500m
200 to 500 ft
< 800m
< 200 ft
Symbols :   Thunderstorms  Fog  Heavy snow  Heavy precipitations  Wind > 20 kt






- Airport Elevation : 1024 ft


KRWF - Redwood Falls Municipal

CURRENT METAR :
  • 221553Z AUTO 30020G33KT 10SM OVC026 04/M01 A2962 RMK AO2 PK WND 28038/1517 SLP038 T00441006

EXPIRED METARs :
  • 221453Z AUTO 30023G32KT 10SM OVC020 04/00 A2961 RMK AO2 PK WND 31036/1443 SLP034 T00390000 53018
  • 221353Z AUTO 30019G30KT 10SM OVC017 03/01 A2959 RMK AO2 PK WND 29037/1324 SLP028 T00330011

TAF KRWF
Valid from the 22 at 12:00 until the 23 at 12:00 UTC


221126Z 2212/2312 30028G44KT P6SM OVC014
FM221400 30026G42KT P6SM OVC025
FM221700 29025G39KT P6SM BKN035
FM222300 29019G29KT P6SM SCT090
FM230200 29012G20KT P6SM FEW150
FM230400 28009KT P6SM FEW200



MET'MAP, your aeronautical weather chart ! - Copyright ORBIFLY December 2007 - Disclaimer

ORBIFLY MET'MAP TEAM :

Programming & Development : Alexandra Zaïnal
Concept & Development : Baudouin d'Aumeries
Co-Development & Prog : Marc-Olivier Méhu
Technical & hardware support : Manuel Goepfert

Contact : metmap@orbifly.com




SOURCES & CREDITS :

   NOAA       Earth
Advisory